createdAt,value
2022-10-25T01:02:11.415Z,74.51
2022-10-25T01:04:38.980Z,74.60
2022-10-25T01:07:05.505Z,74.66
2022-10-25T01:09:35.778Z,74.74
2022-10-25T01:12:02.428Z,74.64
2022-10-25T03:10:23.010Z,75.10
2022-10-25T03:12:49.683Z,75.12
2022-10-25T03:15:16.346Z,75.13
2022-10-25T03:17:42.877Z,75.00
2022-10-25T07:02:54.826Z,75.10
2022-10-25T07:05:21.777Z,75.18
2022-10-25T07:07:48.824Z,75.34
2022-10-25T07:10:15.789Z,75.28
2022-10-25T07:12:42.353Z,75.29
2022-10-25T07:15:09.398Z,75.18
2022-10-25T07:17:36.035Z,75.07
2022-10-25T07:20:04.617Z,75.21
2022-10-25T07:22:31.167Z,75.12
2022-10-25T07:24:57.846Z,75.26
2022-10-25T07:27:24.317Z,75.14
2022-10-25T07:29:50.907Z,75.18
2022-10-25T07:40:58.786Z,75.25
2022-10-25T07:43:26.501Z,75.54
2022-10-25T07:45:53.463Z,75.35
2022-10-25T07:48:20.294Z,75.40
2022-10-25T07:50:46.897Z,75.48
2022-10-25T07:53:13.643Z,75.54
2022-10-25T07:55:40.278Z,75.53
2022-10-25T07:58:10.821Z,75.42
2022-10-25T08:00:37.555Z,75.30
2022-10-25T08:03:04.621Z,75.47
2022-10-25T08:05:31.146Z,75.32
2022-10-25T08:07:57.652Z,75.50
2022-10-25T08:10:24.156Z,75.39
2022-10-25T08:12:51.171Z,75.45
2022-10-25T08:15:17.986Z,75.78
2022-10-25T08:17:45.364Z,75.46
2022-10-25T08:20:12.221Z,75.36
2022-10-25T08:22:38.797Z,75.36
2022-10-25T08:25:05.887Z,75.38
2022-10-25T08:27:32.652Z,75.38
2022-10-25T08:29:59.392Z,75.44
2022-10-25T08:32:25.905Z,75.33
2022-10-25T08:34:52.417Z,75.39
2022-10-25T08:37:18.901Z,75.32
2022-10-25T08:39:47.143Z,75.43
2022-10-25T08:42:25.582Z,75.31
2022-10-25T08:45:19.158Z,75.36
2022-10-25T08:47:51.272Z,75.60
2022-10-25T08:50:35.015Z,75.42
2022-10-25T08:53:06.411Z,75.52
2022-10-25T08:55:38.891Z,75.63
2022-10-25T08:58:37.025Z,75.57
2022-10-25T09:01:14.640Z,75.57
2022-10-25T09:06:23.507Z,75.71
2022-10-25T09:09:04.322Z,75.72
2022-10-25T09:11:52.648Z,75.74
2022-10-25T09:14:36.031Z,75.92
2022-10-25T09:17:16.581Z,75.65
2022-10-25T09:20:15.739Z,75.79
2022-10-25T09:22:54.482Z,75.82
2022-10-25T09:25:41.884Z,75.79
2022-10-25T09:28:16.563Z,75.91
2022-10-25T09:30:44.495Z,75.99
2022-10-25T09:35:55.488Z,75.83
2022-10-25T09:38:43.643Z,75.77
2022-10-25T09:41:21.800Z,75.90
2022-10-25T09:44:01.795Z,76.10
2022-10-25T09:46:39.918Z,75.92
2022-10-25T09:49:28.714Z,75.87
2022-10-25T09:52:05.021Z,75.87
2022-10-25T09:54:45.209Z,75.89
2022-10-25T09:57:11.849Z,75.99
2022-10-25T09:59:38.580Z,75.99
2022-10-25T13:00:11.947Z,74.47
2022-10-25T13:02:59.821Z,74.23
2022-10-25T13:05:49.008Z,74.20
2022-10-25T13:08:19.987Z,74.13
2022-10-25T13:10:49.501Z,73.90
2022-10-25T13:13:23.568Z,73.81
2022-10-25T13:15:51.608Z,73.94
2022-10-25T13:18:47.787Z,73.65
2022-10-25T13:21:16.877Z,73.80
2022-10-25T13:23:43.311Z,73.48
2022-10-25T13:26:14.217Z,73.20
2022-10-25T13:28:49.343Z,72.90
2022-10-25T16:02:20.876Z,72.65
2022-10-25T16:04:48.094Z,72.40
2022-10-25T16:07:15.836Z,72.31
2022-10-25T16:09:43.091Z,72.40
2022-10-25T16:12:18.517Z,72.06
2022-10-25T16:14:45.587Z,72.29
2022-10-25T16:17:14.074Z,72.15
2022-10-25T16:19:40.993Z,72.35
2022-10-25T16:22:07.517Z,72.44
2022-10-25T16:24:34.106Z,72.39
2022-10-25T16:27:01.218Z,72.08
2022-10-25T16:29:27.875Z,72.24
2022-10-25T16:31:54.528Z,72.05
2022-10-25T16:34:21.319Z,72.13
2022-10-25T16:36:49.413Z,72.25
2022-10-25T16:39:16.251Z,72.23
2022-10-25T16:41:45.044Z,72.08
2022-10-25T16:44:12.898Z,72.03
2022-10-25T16:46:39.696Z,71.99
2022-10-25T16:49:06.353Z,72.18
2022-10-25T16:51:34.673Z,72.16
2022-10-25T16:54:01.869Z,72.02
2022-10-25T16:56:28.362Z,72.16
2022-10-25T16:58:55.113Z,72.09
2022-10-25T17:01:33.381Z,71.92
2022-10-25T17:04:01.481Z,72.22
2022-10-25T17:06:40.685Z,72.12
2022-10-25T17:09:07.633Z,72.22
2022-10-25T17:11:34.096Z,72.10
2022-10-25T17:14:00.565Z,71.79
2022-10-25T17:16:27.069Z,72.01
2022-10-25T17:18:53.593Z,72.16
2022-10-25T17:30:14.944Z,72.21
2022-10-25T17:32:41.502Z,72.44
2022-10-25T17:35:08.203Z,72.41
2022-10-25T17:37:34.983Z,72.46
2022-10-25T17:40:01.726Z,72.54
2022-10-25T17:42:28.303Z,72.45
2022-10-25T17:44:55.231Z,72.51
2022-10-25T17:47:21.794Z,72.54
2022-10-25T17:49:48.408Z,72.56
2022-10-25T17:52:14.911Z,72.51
2022-10-25T17:54:41.552Z,72.38
2022-10-25T17:57:08.029Z,72.59
2022-10-25T17:59:35.655Z,72.55
2022-10-25T18:02:02.430Z,72.63
2022-10-25T18:04:40.759Z,72.65
2022-10-25T18:07:15.061Z,72.64
2022-10-25T18:09:41.514Z,72.61
